San Ramon de la Nueva Oran, Argentina
Current Conditions -  °F | °C
As of 3:00 PM on Monday 22 Dec 2014 (Local Time) from SLYA Reporting Station
Overcast Overcast  
Wind Chill: 68°   Ceiling: 7000
Heat Index: 68°   Visibility: 6mi
Dew Point: 57°   Wind: 12mph
Humidity: 68%   Direction: 180°S
Pressure: 30.12"   Gusts: NA
Location:  23.13°S, 64.33°W
Report Text: SLYA 221800Z 18010KT 9999 SCT025 OVC070 20/14 Q1020
Loading
Personal Weather Stations






























Interactive Weather Map New forecast layout! Learn more

10-Day Weather Forecast

Advertisements
Track Severe Weather on mobile